createdAt,value
2018-11-14T00:00:29.312Z,15.30
2018-11-14T00:02:59.369Z,15.77
2018-11-14T00:05:28.775Z,15.43
2018-11-14T00:07:58.019Z,15.93
2018-11-14T00:10:27.500Z,17.03
2018-11-14T00:12:56.838Z,19.10
2018-11-14T00:15:26.633Z,20.60
2018-11-14T00:17:56.084Z,19.73
2018-11-14T00:20:25.524Z,18.83
2018-11-14T00:22:54.838Z,19.87
2018-11-14T00:25:24.827Z,20.00
2018-11-14T00:27:54.178Z,15.37
2018-11-14T00:30:25.530Z,18.90
2018-11-14T00:32:54.946Z,20.50
2018-11-14T00:35:24.311Z,19.43
2018-11-14T00:37:53.539Z,21.77
2018-11-14T00:40:22.763Z,22.13
2018-11-14T00:42:52.225Z,23.37
2018-11-14T00:45:22.387Z,28.20
2018-11-14T00:47:52.764Z,19.83
2018-11-14T00:50:22.090Z,18.53
2018-11-14T00:52:51.568Z,23.07
2018-11-14T00:55:22.023Z,22.70
2018-11-14T00:57:52.393Z,28.10
2018-11-14T01:00:23.867Z,25.27
2018-11-14T01:02:53.729Z,23.83
2018-11-14T01:05:23.061Z,19.20
2018-11-14T01:07:52.185Z,28.63
2018-11-14T01:10:22.295Z,25.83
2018-11-14T01:12:52.136Z,22.67
2018-11-14T01:15:22.599Z,23.63
2018-11-14T01:17:51.897Z,26.43
2018-11-14T01:20:22.359Z,22.47
2018-11-14T01:22:51.812Z,22.60
2018-11-14T01:25:21.317Z,29.87
2018-11-14T01:27:50.873Z,23.67
2018-11-14T01:30:21.399Z,23.03
2018-11-14T01:32:51.325Z,22.17
2018-11-14T01:35:20.869Z,31.87
2018-11-14T01:37:50.271Z,31.40
2018-11-14T01:40:22.926Z,22.20
2018-11-14T01:42:56.375Z,24.40
2018-11-14T01:45:26.123Z,20.47
2018-11-14T01:47:55.529Z,23.60
2018-11-14T01:50:24.795Z,21.83
2018-11-14T01:52:54.013Z,29.43
2018-11-14T01:55:23.451Z,25.80
2018-11-14T01:57:52.979Z,20.53
2018-11-14T02:00:24.410Z,23.87
2018-11-14T02:02:53.836Z,23.10
2018-11-14T02:05:23.572Z,20.67
2018-11-14T02:07:53.135Z,22.80
2018-11-14T02:10:22.467Z,21.17
2018-11-14T02:12:51.734Z,27.80
2018-11-14T02:15:22.298Z,22.10
2018-11-14T02:17:51.961Z,28.53
2018-11-14T02:20:21.477Z,21.50
2018-11-14T02:22:50.755Z,21.47
2018-11-14T02:25:20.226Z,23.07
2018-11-14T02:27:49.591Z,21.57
2018-11-14T02:30:20.561Z,21.90
2018-11-14T02:32:49.909Z,22.90
2018-11-14T02:35:19.255Z,21.63
2018-11-14T02:37:48.970Z,24.27
2018-11-14T02:40:19.603Z,21.63
2018-11-14T02:42:49.065Z,22.47
2018-11-14T02:45:18.465Z,27.87
2018-11-14T02:47:47.774Z,20.47
2018-11-14T02:50:17.909Z,22.77
2018-11-14T02:52:47.348Z,23.20
2018-11-14T02:55:17.357Z,23.50
2018-11-14T02:57:46.983Z,25.27
2018-11-14T03:00:19.038Z,19.47
2018-11-14T03:02:48.502Z,26.73
2018-11-14T03:05:18.197Z,18.47
2018-11-14T03:07:47.615Z,22.00
2018-11-14T03:10:18.965Z,23.63
2018-11-14T03:12:48.399Z,22.57
2018-11-14T03:15:21.522Z,22.93
2018-11-14T03:17:50.811Z,27.83
2018-11-14T03:20:21.178Z,23.80
2018-11-14T03:22:50.575Z,21.77
2018-11-14T03:25:19.909Z,24.70
2018-11-14T03:27:49.340Z,19.23
2018-11-14T03:30:19.307Z,22.63
2018-11-14T03:32:49.042Z,29.30
2018-11-14T03:35:18.417Z,28.47
2018-11-14T03:37:47.729Z,26.43
2018-11-14T03:40:17.643Z,28.80
2018-11-14T03:42:46.913Z,28.37
2018-11-14T03:45:16.636Z,23.67
2018-11-14T03:47:46.212Z,30.17
2018-11-14T03:50:15.511Z,24.90
2018-11-14T03:52:44.825Z,32.57
2018-11-14T03:55:14.184Z,27.47
2018-11-14T03:57:43.505Z,27.23
2018-11-14T04:00:16.386Z,29.27
2018-11-14T04:02:46.641Z,20.50
2018-11-14T04:05:15.843Z,25.20
2018-11-14T04:07:45.131Z,32.57
2018-11-14T04:10:15.074Z,21.47
2018-11-14T04:12:44.612Z,31.17
2018-11-14T04:15:15.043Z,34.03
2018-11-14T04:17:44.535Z,28.60
2018-11-14T04:20:15.969Z,27.40
2018-11-14T04:22:45.602Z,24.40
2018-11-14T04:25:19.579Z,27.23
2018-11-14T04:27:49.399Z,23.07
2018-11-14T04:30:20.067Z,26.67
2018-11-14T04:32:49.415Z,29.70
2018-11-14T04:35:19.523Z,29.60
2018-11-14T04:37:48.855Z,24.27
2018-11-14T04:40:21.402Z,26.50
2018-11-14T04:42:50.729Z,27.80
2018-11-14T04:45:26.275Z,24.53
2018-11-14T04:47:56.011Z,22.13
2018-11-14T04:50:26.727Z,23.17
2018-11-14T04:52:56.532Z,30.87
2018-11-14T04:55:26.712Z,29.27
2018-11-14T04:57:55.956Z,24.63
2018-11-14T05:00:26.110Z,24.60
2018-11-14T05:02:55.367Z,31.03
2018-11-14T05:05:25.277Z,35.30
2018-11-14T05:07:54.490Z,26.50
2018-11-14T05:10:25.069Z,25.20
2018-11-14T05:12:54.809Z,25.93
2018-11-14T05:15:25.038Z,27.03
2018-11-14T05:17:54.828Z,31.73
2018-11-14T05:20:24.145Z,26.13
2018-11-14T05:22:53.842Z,25.27
2018-11-14T05:25:23.099Z,27.27
2018-11-14T05:27:52.474Z,23.13
2018-11-14T05:30:22.765Z,24.30
2018-11-14T05:32:52.588Z,24.20
2018-11-14T05:35:21.713Z,23.40
2018-11-14T05:37:51.242Z,22.50
2018-11-14T05:40:21.970Z,25.63
2018-11-14T05:42:51.888Z,20.53
2018-11-14T05:45:22.509Z,24.63
2018-11-14T05:47:52.349Z,25.60
2018-11-14T05:50:22.699Z,25.73
2018-11-14T05:52:52.018Z,24.90
2018-11-14T05:55:21.274Z,20.07
2018-11-14T05:57:50.622Z,24.00
2018-11-14T06:00:30.869Z,20.63
2018-11-14T06:03:01.277Z,25.97
2018-11-14T06:05:30.528Z,23.20
2018-11-14T06:07:59.533Z,29.17
2018-11-14T06:10:28.594Z,22.67
2018-11-14T06:12:58.546Z,22.13
2018-11-14T06:15:27.714Z,27.30
2018-11-14T06:17:57.674Z,25.53
2018-11-14T06:20:26.893Z,25.13
2018-11-14T06:22:56.282Z,30.97
2018-11-14T06:25:41.172Z,29.23
2018-11-14T06:28:11.630Z,28.53
2018-11-14T06:30:42.709Z,23.77
2018-11-14T06:33:12.402Z,29.60
2018-11-14T06:35:41.936Z,31.10
2018-11-14T06:38:11.671Z,24.67
2018-11-14T06:40:41.452Z,25.80
2018-11-14T06:43:11.566Z,22.83
2018-11-14T06:45:42.143Z,31.83
2018-11-14T06:48:12.197Z,30.17
2018-11-14T06:50:42.093Z,31.87
2018-11-14T06:53:12.139Z,28.80
2018-11-14T06:55:41.817Z,27.97
2018-11-14T06:58:11.817Z,28.93
2018-11-14T07:00:41.631Z,31.13
2018-11-14T07:03:11.289Z,28.57
2018-11-14T07:05:41.125Z,25.73
2018-11-14T07:08:10.697Z,19.73
2018-11-14T07:10:40.330Z,20.23
2018-11-14T07:13:10.912Z,32.23
2018-11-14T07:15:41.364Z,27.27
2018-11-14T07:18:11.995Z,22.57
2018-11-14T07:20:43.391Z,27.17
2018-11-14T07:23:13.293Z,30.07
2018-11-14T07:25:43.251Z,27.23
2018-11-14T07:28:13.209Z,24.30
2018-11-14T07:30:43.076Z,29.60
2018-11-14T07:33:12.980Z,28.17
2018-11-14T07:35:42.557Z,24.57
2018-11-14T07:38:21.129Z,19.13
2018-11-14T07:40:51.762Z,21.33
2018-11-14T07:43:21.371Z,23.43
2018-11-14T07:45:51.647Z,23.47
2018-11-14T07:48:22.085Z,22.80
2018-11-14T07:50:52.189Z,23.70
2018-11-14T07:53:22.136Z,26.50
2018-11-14T07:55:53.045Z,22.03
2018-11-14T07:58:22.441Z,18.30
2018-11-14T08:00:52.551Z,20.37
2018-11-14T08:03:22.445Z,21.67
2018-11-14T08:05:52.487Z,28.87
2018-11-14T08:08:22.286Z,20.97
2018-11-14T08:10:52.181Z,18.97
2018-11-14T08:13:22.935Z,19.67
2018-11-14T08:15:54.593Z,21.07
2018-11-14T08:18:24.894Z,19.47
2018-11-14T08:20:54.834Z,23.40
2018-11-14T08:23:24.864Z,22.93
2018-11-14T08:25:54.855Z,17.33
2018-11-14T08:28:24.829Z,18.63
2018-11-14T08:30:54.613Z,12.93
2018-11-14T08:33:24.496Z,13.90
2018-11-14T08:35:54.627Z,15.83
2018-11-14T08:38:24.576Z,19.37
2018-11-14T08:40:54.502Z,14.73
2018-11-14T08:43:24.747Z,15.87
2018-11-14T08:45:54.916Z,11.73
2018-11-14T08:48:24.710Z,17.07
2018-11-14T08:50:54.530Z,12.40
2018-11-14T08:53:24.520Z,14.07
2018-11-14T08:55:54.668Z,17.47
2018-11-14T08:58:25.162Z,16.23
2018-11-14T09:00:54.806Z,10.57
2018-11-14T09:03:24.596Z,12.93
2018-11-14T09:05:55.380Z,11.60
2018-11-14T09:08:24.836Z,11.40
2018-11-14T09:10:54.816Z,15.63
2018-11-14T09:13:24.567Z,14.50
2018-11-14T09:15:54.403Z,13.03
2018-11-14T09:18:24.588Z,12.70
2018-11-14T09:20:54.531Z,13.83
2018-11-14T09:23:24.456Z,11.50
2018-11-14T09:25:54.294Z,12.87
2018-11-14T09:28:24.003Z,12.83
2018-11-14T09:30:53.734Z,13.63
2018-11-14T09:33:23.574Z,9.13
2018-11-14T09:35:53.329Z,14.80
2018-11-14T09:38:22.841Z,17.60
2018-11-14T09:40:52.382Z,11.00
2018-11-14T09:43:21.862Z,12.77
2018-11-14T09:45:52.158Z,13.80
2018-11-14T09:48:22.216Z,13.50
2018-11-14T09:50:52.027Z,15.30
2018-11-14T09:53:22.189Z,13.53
2018-11-14T09:55:52.161Z,8.93
2018-11-14T09:58:22.018Z,15.20
2018-11-14T10:00:52.174Z,9.63
2018-11-14T10:03:21.986Z,14.77
2018-11-14T10:05:51.876Z,16.60
2018-11-14T10:08:22.124Z,11.90
2018-11-14T10:10:52.096Z,12.70
2018-11-14T10:13:22.113Z,9.40
2018-11-14T10:15:52.196Z,7.17
2018-11-14T10:18:22.120Z,14.87
2018-11-14T10:20:52.202Z,9.37
2018-11-14T10:23:22.042Z,14.00
2018-11-14T10:25:52.014Z,10.70
2018-11-14T10:28:22.089Z,10.00
2018-11-14T10:30:51.755Z,12.90
2018-11-14T10:33:21.645Z,17.63
2018-11-14T10:35:51.348Z,13.33
2018-11-14T10:38:20.880Z,14.43
2018-11-14T10:40:50.329Z,14.60
2018-11-14T10:43:19.934Z,11.43
2018-11-14T10:45:50.170Z,9.73
2018-11-14T10:48:20.220Z,14.60
2018-11-14T10:50:51.705Z,12.23
2018-11-14T10:53:21.513Z,11.23
2018-11-14T10:55:51.415Z,8.53
2018-11-14T10:58:21.166Z,11.37
2018-11-14T11:00:56.464Z,11.40
2018-11-14T11:03:32.086Z,10.60
2018-11-14T11:06:07.214Z,12.07
2018-11-14T11:08:42.194Z,12.43
2018-11-14T11:11:22.343Z,13.47
2018-11-14T11:14:54.565Z,8.07
2018-11-14T11:18:32.304Z,10.97
2018-11-14T11:21:02.204Z,7.37
2018-11-14T11:23:32.079Z,8.33
2018-11-14T11:26:02.012Z,12.13
2018-11-14T11:28:32.129Z,11.20
2018-11-14T11:31:02.184Z,7.50
2018-11-14T11:33:32.379Z,12.03
2018-11-14T11:36:02.250Z,10.17
2018-11-14T11:38:31.956Z,6.90
2018-11-14T11:41:01.995Z,12.07
2018-11-14T11:43:32.073Z,8.23
2018-11-14T11:46:02.159Z,8.53
2018-11-14T11:48:32.003Z,13.53
2018-11-14T11:51:01.794Z,8.07
2018-11-14T11:53:31.751Z,8.30
2018-11-14T11:56:01.889Z,10.47
2018-11-14T11:58:32.004Z,8.23
2018-11-14T12:01:01.692Z,8.57
2018-11-14T12:03:31.695Z,15.37
2018-11-14T12:06:02.040Z,6.57
2018-11-14T12:08:31.306Z,8.00
2018-11-14T12:11:00.905Z,7.40
2018-11-14T12:13:30.450Z,9.77
2018-11-14T12:16:00.243Z,7.07
2018-11-14T12:18:29.943Z,7.97
2018-11-14T12:21:06.508Z,10.03
2018-11-14T12:23:36.073Z,7.10
2018-11-14T12:26:05.570Z,7.17
2018-11-14T12:28:34.909Z,6.33
2018-11-14T12:31:04.833Z,7.63
2018-11-14T12:33:34.988Z,4.17
2018-11-14T12:36:04.801Z,7.83
2018-11-14T12:38:34.475Z,6.07
2018-11-14T12:41:04.568Z,6.67
2018-11-14T12:43:34.487Z,8.33
2018-11-14T12:46:04.416Z,8.37
2018-11-14T12:48:34.390Z,5.33
2018-11-14T12:51:04.362Z,4.50
2018-11-14T12:53:35.131Z,6.60
2018-11-14T12:56:04.842Z,5.37
2018-11-14T12:58:35.070Z,4.60
2018-11-14T13:01:05.146Z,10.03
2018-11-14T13:03:34.546Z,9.53
2018-11-14T13:06:04.172Z,4.87
2018-11-14T13:08:33.749Z,7.43
2018-11-14T13:11:03.360Z,6.30
2018-11-14T13:13:37.829Z,6.37
2018-11-14T13:16:07.236Z,10.07
2018-11-14T13:18:37.070Z,8.00
2018-11-14T13:21:07.392Z,9.33
2018-11-14T13:23:37.582Z,8.43
2018-11-14T13:26:07.434Z,7.83
2018-11-14T13:28:37.515Z,4.67
2018-11-14T13:31:07.421Z,8.37
2018-11-14T13:33:37.078Z,7.87
2018-11-14T13:36:07.006Z,7.90
2018-11-14T13:38:36.572Z,7.43
2018-11-14T13:41:06.372Z,5.03
2018-11-14T13:43:35.766Z,8.53
2018-11-14T13:46:05.752Z,7.97
2018-11-14T13:48:35.409Z,8.37
2018-11-14T13:51:05.069Z,8.37
2018-11-14T13:53:34.670Z,9.40
2018-11-14T13:56:04.488Z,6.77
2018-11-14T13:58:34.406Z,4.90
2018-11-14T14:01:04.664Z,7.17
2018-11-14T14:03:34.476Z,8.43
2018-11-14T14:06:04.665Z,7.07
2018-11-14T14:08:34.746Z,8.40
2018-11-14T14:11:04.738Z,7.53
2018-11-14T14:13:34.837Z,10.83
2018-11-14T14:16:04.819Z,8.57
2018-11-14T14:18:34.744Z,4.53
2018-11-14T14:21:04.708Z,7.90
2018-11-14T14:23:34.573Z,10.13
2018-11-14T14:26:04.633Z,8.13
2018-11-14T14:28:34.361Z,7.27
2018-11-14T14:31:04.502Z,6.63
2018-11-14T14:33:34.364Z,6.50
2018-11-14T14:36:03.952Z,9.43
2018-11-14T14:38:33.579Z,5.80
2018-11-14T14:41:03.105Z,9.03
2018-11-14T14:43:32.870Z,8.57
2018-11-14T14:46:02.458Z,5.97
2018-11-14T14:48:32.194Z,6.77
2018-11-14T14:51:02.018Z,5.23
2018-11-14T14:53:31.871Z,6.73
2018-11-14T14:56:01.628Z,7.23
2018-11-14T14:58:31.685Z,7.63
2018-11-14T15:01:01.401Z,5.53
2018-11-14T15:03:31.286Z,4.27
2018-11-14T15:06:01.017Z,9.53
2018-11-14T15:08:30.424Z,6.60
2018-11-14T15:10:59.867Z,5.83
2018-11-14T15:13:29.775Z,4.63
2018-11-14T15:15:59.283Z,5.70
2018-11-14T15:18:29.001Z,6.83
2018-11-14T15:20:58.695Z,5.70
2018-11-14T15:23:28.485Z,6.20
2018-11-14T15:25:57.891Z,7.43
2018-11-14T15:28:27.388Z,7.43
2018-11-14T15:30:56.485Z,4.73
2018-11-14T15:33:25.851Z,5.17
2018-11-14T15:35:55.090Z,6.13
2018-11-14T15:38:24.380Z,10.57
2018-11-14T15:40:53.516Z,9.60
2018-11-14T15:43:22.737Z,12.60
2018-11-14T15:45:51.848Z,10.00
2018-11-14T15:48:20.942Z,5.47
2018-11-14T15:50:50.303Z,9.40
2018-11-14T15:53:19.407Z,6.77
2018-11-14T15:55:48.670Z,8.37
2018-11-14T15:58:17.837Z,10.73
2018-11-14T16:00:46.990Z,4.50
2018-11-14T16:03:16.056Z,10.50
2018-11-14T16:05:45.407Z,9.53
2018-11-14T16:08:14.458Z,4.70
2018-11-14T16:10:43.652Z,6.73
2018-11-14T16:13:12.873Z,5.47
2018-11-14T16:15:45.182Z,7.93
2018-11-14T16:18:14.413Z,7.97
2018-11-14T16:20:43.517Z,3.23
2018-11-14T16:23:12.753Z,5.70
2018-11-14T16:25:41.899Z,9.60
2018-11-14T16:28:11.127Z,6.63
2018-11-14T16:30:40.317Z,4.93
2018-11-14T16:33:09.615Z,4.67
2018-11-14T16:35:39.040Z,6.23
2018-11-14T16:38:08.323Z,8.40
2018-11-14T16:40:37.574Z,12.23
2018-11-14T16:43:07.845Z,11.03
2018-11-14T16:45:38.314Z,7.00
2018-11-14T16:48:07.537Z,8.10
2018-11-14T16:50:36.704Z,11.27
2018-11-14T16:53:09.415Z,7.53
2018-11-14T16:55:38.690Z,9.83
2018-11-14T16:58:07.970Z,12.37
2018-11-14T17:00:37.152Z,8.40
2018-11-14T17:03:06.531Z,8.23
2018-11-14T17:05:35.657Z,8.13
2018-11-14T17:08:04.971Z,8.23
2018-11-14T17:10:34.082Z,8.23
2018-11-14T17:13:03.352Z,5.47
2018-11-14T17:15:32.637Z,11.27
2018-11-14T17:18:01.872Z,11.73
2018-11-14T17:20:31.031Z,13.30
2018-11-14T17:23:00.276Z,16.50
2018-11-14T17:25:29.448Z,9.13
2018-11-14T17:27:58.679Z,8.87
2018-11-14T17:30:28.449Z,10.93
2018-11-14T17:32:57.641Z,7.27
2018-11-14T17:35:26.733Z,6.33
2018-11-14T17:37:56.044Z,6.40
2018-11-14T17:40:26.393Z,9.90
2018-11-14T17:42:55.627Z,6.90
2018-11-14T17:45:27.591Z,8.97
2018-11-14T17:47:57.336Z,11.63
2018-11-14T17:50:30.264Z,10.13
2018-11-14T17:53:00.249Z,9.67
2018-11-14T17:55:30.145Z,10.30
2018-11-14T17:57:59.499Z,9.93
2018-11-14T18:00:30.023Z,9.27
2018-11-14T18:02:59.357Z,6.47
2018-11-14T18:05:29.707Z,13.70
2018-11-14T18:07:58.851Z,9.53
2018-11-14T18:10:29.371Z,6.30
2018-11-14T18:12:59.641Z,6.53
2018-11-14T18:15:28.795Z,7.30
2018-11-14T18:17:58.288Z,9.40
2018-11-14T18:20:29.774Z,9.63
2018-11-14T18:22:59.138Z,8.87
2018-11-14T18:25:28.317Z,6.20
2018-11-14T18:27:57.494Z,7.13
2018-11-14T18:30:28.322Z,8.73
2018-11-14T18:32:58.461Z,9.00
2018-11-14T18:35:28.021Z,10.50
2018-11-14T18:37:58.334Z,9.93
2018-11-14T18:40:33.946Z,11.23
2018-11-14T18:43:03.342Z,8.87
2018-11-14T18:45:35.262Z,10.57
2018-11-14T18:48:05.709Z,8.10
2018-11-14T18:50:36.422Z,7.17
2018-11-14T18:53:05.819Z,11.07
2018-11-14T18:55:35.677Z,10.63
2018-11-14T18:58:05.524Z,7.23
2018-11-14T19:00:35.357Z,6.37
2018-11-14T19:03:04.760Z,8.23
2018-11-14T19:05:34.025Z,5.83
2018-11-14T19:08:03.334Z,10.67
2018-11-14T19:10:33.766Z,8.77
2018-11-14T19:13:03.485Z,8.40
2018-11-14T19:15:33.956Z,7.90
2018-11-14T19:18:03.353Z,8.37
2018-11-14T19:20:33.670Z,11.87
2018-11-14T19:23:03.868Z,10.83
2018-11-14T19:25:34.504Z,8.97
2018-11-14T19:28:03.880Z,13.70
2018-11-14T19:30:35.510Z,8.47
2018-11-14T19:33:05.043Z,9.53
2018-11-14T19:35:34.268Z,8.73
2018-11-14T19:38:03.492Z,12.57
2018-11-14T19:40:35.827Z,8.13
2018-11-14T19:43:07.162Z,7.73
2018-11-14T19:45:37.496Z,9.20
2018-11-14T19:48:07.196Z,8.73
2018-11-14T19:50:36.594Z,9.17
2018-11-14T19:53:05.944Z,9.93
2018-11-14T19:55:35.889Z,8.60
2018-11-14T19:58:05.957Z,10.87
2018-11-14T20:00:37.372Z,9.13
2018-11-14T20:03:07.239Z,12.53
2018-11-14T20:05:36.586Z,10.93
2018-11-14T20:08:06.226Z,10.00
2018-11-14T20:10:35.481Z,12.93
2018-11-14T20:13:05.492Z,13.37
2018-11-14T20:15:35.847Z,12.07
2018-11-14T20:18:05.504Z,13.87
2018-11-14T20:20:36.034Z,9.40
2018-11-14T20:23:05.510Z,12.13
2018-11-14T20:25:35.017Z,12.80
2018-11-14T20:28:04.192Z,14.77
2018-11-14T20:30:35.699Z,18.50
2018-11-14T20:33:07.275Z,15.00
2018-11-14T20:35:36.585Z,11.83
2018-11-14T20:38:06.030Z,16.20
2018-11-14T20:40:38.098Z,16.47
2018-11-14T20:43:07.860Z,14.47
2018-11-14T20:45:37.153Z,14.63
2018-11-14T20:48:06.598Z,15.23
2018-11-14T20:50:35.832Z,16.50
2018-11-14T20:53:05.587Z,14.73
2018-11-14T20:55:35.517Z,16.20
2018-11-14T20:58:04.891Z,17.03
2018-11-14T21:00:36.286Z,16.17
2018-11-14T21:03:06.330Z,19.03
2018-11-14T21:05:35.659Z,22.20
2018-11-14T21:08:05.099Z,17.90
2018-11-14T21:10:35.200Z,16.20
2018-11-14T21:13:04.825Z,19.90
2018-11-14T21:15:35.525Z,14.50
2018-11-14T21:18:04.972Z,15.63
2018-11-14T21:20:34.273Z,16.53
2018-11-14T21:23:03.556Z,15.87
2018-11-14T21:25:32.728Z,16.20
2018-11-14T21:28:01.898Z,14.33
2018-11-14T21:30:31.621Z,16.10
2018-11-14T21:33:01.332Z,17.30
2018-11-14T21:35:32.360Z,15.93
2018-11-14T21:38:02.995Z,17.03
2018-11-14T21:40:32.958Z,15.47
2018-11-14T21:43:02.197Z,16.37
2018-11-14T21:45:31.624Z,12.60
2018-11-14T21:48:06.021Z,16.40
2018-11-14T21:50:35.435Z,16.93
2018-11-14T21:53:05.139Z,16.53
2018-11-14T21:55:34.340Z,12.83
2018-11-14T21:58:03.722Z,15.40
2018-11-14T22:00:34.938Z,12.33
2018-11-14T22:03:04.457Z,15.23
2018-11-14T22:05:34.271Z,17.33
2018-11-14T22:08:03.533Z,15.60
2018-11-14T22:10:32.872Z,13.97
2018-11-14T22:13:02.468Z,16.30
2018-11-14T22:15:31.967Z,14.60
2018-11-14T22:18:01.282Z,16.23
2018-11-14T22:20:31.009Z,17.50
2018-11-14T22:23:00.182Z,17.37
2018-11-14T22:25:30.189Z,15.80
2018-11-14T22:27:59.424Z,16.13
2018-11-14T22:30:30.958Z,16.43
2018-11-14T22:33:00.093Z,15.17
2018-11-14T22:35:30.715Z,14.93
2018-11-14T22:38:00.123Z,15.47
2018-11-14T22:40:30.654Z,18.60
2018-11-14T22:43:00.312Z,24.60
2018-11-14T22:45:32.035Z,18.17
2018-11-14T22:48:01.306Z,20.20
2018-11-14T22:50:30.498Z,17.03
2018-11-14T22:52:59.788Z,17.87
2018-11-14T22:55:29.024Z,15.97
2018-11-14T22:57:58.117Z,15.17
2018-11-14T23:00:31.902Z,13.97
2018-11-14T23:03:02.469Z,13.80
2018-11-14T23:05:31.893Z,16.33
2018-11-14T23:08:01.575Z,16.23
2018-11-14T23:10:30.802Z,14.87
2018-11-14T23:13:00.096Z,14.77
2018-11-14T23:15:29.327Z,15.27
2018-11-14T23:17:58.498Z,15.17
2018-11-14T23:20:27.846Z,14.33
2018-11-14T23:22:57.027Z,14.50
2018-11-14T23:25:26.250Z,13.50
2018-11-14T23:27:56.092Z,21.03
2018-11-14T23:30:26.471Z,21.20
2018-11-14T23:32:56.714Z,17.73
2018-11-14T23:35:27.057Z,18.17
2018-11-14T23:37:57.607Z,15.47
2018-11-14T23:40:27.402Z,18.67
2018-11-14T23:42:56.695Z,13.73
2018-11-14T23:45:26.704Z,15.53
2018-11-14T23:47:55.938Z,11.80
2018-11-14T23:50:28.268Z,13.37
2018-11-14T23:52:58.372Z,17.40
2018-11-14T23:55:28.476Z,15.27
2018-11-14T23:57:58.120Z,17.70
